createdAt,value
2019-05-13T00:02:04.369Z,2.00
2019-05-13T00:04:33.673Z,3.17
2019-05-13T00:07:04.420Z,5.20
2019-05-13T00:09:33.905Z,1.93
2019-05-13T00:12:04.530Z,4.17
2019-05-13T00:14:34.372Z,4.13
2019-05-13T00:17:04.309Z,6.83
2019-05-13T00:19:33.875Z,1.30
2019-05-13T00:22:03.801Z,5.43
2019-05-13T00:24:33.910Z,2.97
2019-05-13T00:27:03.921Z,3.37
2019-05-13T00:29:34.073Z,2.07
2019-05-13T00:32:04.809Z,3.33
2019-05-13T00:34:33.871Z,3.20
2019-05-13T00:37:09.864Z,2.87
2019-05-13T00:39:33.590Z,3.53
2019-05-13T00:42:04.077Z,3.60
2019-05-13T00:44:33.788Z,3.93
2019-05-13T00:47:04.397Z,3.17
2019-05-13T00:49:34.598Z,4.27
2019-05-13T00:52:03.871Z,2.57
2019-05-13T00:54:34.173Z,4.40
2019-05-13T00:57:04.216Z,2.30
2019-05-13T00:59:33.890Z,3.30
2019-05-13T01:02:04.521Z,3.00
2019-05-13T01:04:33.958Z,3.70
2019-05-13T01:07:04.341Z,4.10
2019-05-13T01:09:34.282Z,4.67
2019-05-13T01:12:04.443Z,7.30
2019-05-13T01:14:34.175Z,4.40
2019-05-13T01:17:03.826Z,5.13
2019-05-13T01:19:34.197Z,6.60
2019-05-13T01:22:03.416Z,6.73
2019-05-13T01:24:33.624Z,5.50
2019-05-13T01:27:03.885Z,3.03
2019-05-13T01:29:34.147Z,3.00
2019-05-13T01:32:04.247Z,3.00
2019-05-13T01:34:33.954Z,6.97
2019-05-13T01:37:04.114Z,3.43
2019-05-13T01:39:34.663Z,6.80
2019-05-13T01:42:03.734Z,3.17
2019-05-13T01:44:33.498Z,6.67
2019-05-13T01:47:04.280Z,6.97
2019-05-13T01:49:33.700Z,4.80
2019-05-13T01:52:03.791Z,5.57
2019-05-13T01:54:33.925Z,4.67
2019-05-13T01:57:04.123Z,4.77
2019-05-13T01:59:33.979Z,5.17
2019-05-13T02:02:03.462Z,6.67
2019-05-13T02:04:33.548Z,4.43
2019-05-13T02:07:03.996Z,8.00
2019-05-13T02:09:33.788Z,4.17
2019-05-13T02:12:04.564Z,4.97
2019-05-13T02:14:34.057Z,7.70
2019-05-13T02:17:04.273Z,8.03
2019-05-13T02:19:33.572Z,7.87
2019-05-13T02:22:03.981Z,6.47
2019-05-13T02:24:34.123Z,6.83
2019-05-13T02:27:03.625Z,6.17
2019-05-13T02:29:34.390Z,7.13
2019-05-13T02:32:02.983Z,5.63
2019-05-13T02:34:32.339Z,12.37
2019-05-13T02:37:03.334Z,8.63
2019-05-13T02:39:32.899Z,7.10
2019-05-13T02:42:03.466Z,7.60
2019-05-13T02:44:33.371Z,12.23
2019-05-13T02:47:03.455Z,7.17
2019-05-13T02:49:32.449Z,7.60
2019-05-13T02:52:02.821Z,8.83
2019-05-13T02:54:34.257Z,8.70
2019-05-13T02:57:03.723Z,7.77
2019-05-13T02:59:33.614Z,6.60
2019-05-13T03:02:03.687Z,14.47
2019-05-13T03:04:32.485Z,9.60
2019-05-13T03:07:02.934Z,6.60
2019-05-13T03:09:32.557Z,8.67
2019-05-13T03:12:03.965Z,6.77
2019-05-13T03:14:32.274Z,9.40
2019-05-13T03:17:03.218Z,7.00
2019-05-13T03:19:33.139Z,9.15
2019-05-13T03:22:02.976Z,8.53
2019-05-13T03:24:33.089Z,12.07
2019-05-13T03:27:02.513Z,8.13
2019-05-13T03:29:33.027Z,7.83
2019-05-13T03:32:06.900Z,7.93
2019-05-13T03:34:36.169Z,11.20
2019-05-13T03:37:06.368Z,9.10
2019-05-13T03:39:33.176Z,10.47
2019-05-13T03:42:03.186Z,8.27
2019-05-13T03:44:32.692Z,9.97
2019-05-13T03:47:03.414Z,11.33
2019-05-13T03:49:34.648Z,11.07
2019-05-13T03:52:03.524Z,10.30
2019-05-13T03:54:32.705Z,10.97
2019-05-13T03:57:03.445Z,11.40
2019-05-13T03:59:33.241Z,9.73
2019-05-13T04:02:02.756Z,11.00
2019-05-13T04:04:32.435Z,11.23
2019-05-13T04:07:02.729Z,9.80
2019-05-13T04:09:35.685Z,11.03
2019-05-13T04:12:03.150Z,11.20
2019-05-13T04:14:33.471Z,12.07
2019-05-13T04:17:02.986Z,9.63
2019-05-13T04:19:33.721Z,10.27
2019-05-13T04:22:02.595Z,11.17
2019-05-13T04:24:33.364Z,11.83
2019-05-13T04:27:02.805Z,10.50
2019-05-13T04:29:32.904Z,8.63
2019-05-13T04:32:02.363Z,11.87
2019-05-13T04:34:33.788Z,9.83
2019-05-13T04:37:02.417Z,13.03
2019-05-13T04:39:44.700Z,9.93
2019-05-13T04:42:02.328Z,8.87
2019-05-13T04:44:32.423Z,10.37
2019-05-13T04:47:03.701Z,11.50
2019-05-13T04:49:32.567Z,11.00
2019-05-13T04:52:03.438Z,11.43
2019-05-13T04:54:33.158Z,12.40
2019-05-13T04:57:02.987Z,11.77
2019-05-13T04:59:34.596Z,11.23
2019-05-13T05:02:43.262Z,11.50
2019-05-13T05:05:23.903Z,10.40
2019-05-13T05:08:03.165Z,10.67
2019-05-13T05:11:13.051Z,10.97
2019-05-13T05:13:45.461Z,11.07
2019-05-13T05:16:52.383Z,10.53
2019-05-13T05:19:32.048Z,7.80
2019-05-13T05:22:36.264Z,12.67
2019-05-13T05:25:13.563Z,11.83
2019-05-13T05:27:51.466Z,10.90
2019-05-13T05:30:42.435Z,8.73
2019-05-13T05:33:32.018Z,9.43
2019-05-13T05:36:03.686Z,12.10
2019-05-13T05:39:12.257Z,14.80
2019-05-13T05:41:42.160Z,10.87
2019-05-13T05:44:12.410Z,11.77
2019-05-13T05:46:42.511Z,11.23
2019-05-13T05:49:12.699Z,9.43
2019-05-13T05:51:41.908Z,9.30
2019-05-13T05:54:14.449Z,9.57
2019-05-13T05:56:41.568Z,7.03
2019-05-13T05:59:12.517Z,6.47
2019-05-13T06:01:41.572Z,12.07
2019-05-13T06:04:12.641Z,11.97
2019-05-13T06:06:41.478Z,6.77
2019-05-13T06:09:12.149Z,8.10
2019-05-13T06:11:41.730Z,7.00
2019-05-13T06:14:11.301Z,6.83
2019-05-13T06:16:42.400Z,7.83
2019-05-13T06:19:12.082Z,11.10
2019-05-13T06:21:42.033Z,7.13
2019-05-13T06:24:11.663Z,7.30
2019-05-13T06:26:42.020Z,12.70
2019-05-13T06:29:11.684Z,9.50
2019-05-13T06:31:41.890Z,9.67
2019-05-13T06:34:12.429Z,9.10
2019-05-13T06:36:41.801Z,7.87
2019-05-13T06:39:12.394Z,8.43
2019-05-13T06:41:41.650Z,9.13
2019-05-13T06:44:12.166Z,10.20
2019-05-13T06:46:42.325Z,7.73
2019-05-13T06:49:12.112Z,13.63
2019-05-13T06:51:41.757Z,11.60
2019-05-13T06:54:11.265Z,11.60
2019-05-13T06:56:42.098Z,12.23
2019-05-13T06:59:11.846Z,13.07
2019-05-13T07:01:42.193Z,8.10
2019-05-13T07:04:12.702Z,9.87
2019-05-13T07:06:41.753Z,7.33
2019-05-13T07:09:11.958Z,8.83
2019-05-13T07:11:41.636Z,12.13
2019-05-13T07:14:12.776Z,7.37
2019-05-13T07:16:42.126Z,9.83
2019-05-13T07:19:11.737Z,13.00
2019-05-13T07:21:41.700Z,9.40
2019-05-13T07:24:12.659Z,11.03
2019-05-13T07:26:41.927Z,8.13
2019-05-13T07:29:12.627Z,10.73
2019-05-13T07:31:42.231Z,6.87
2019-05-13T07:34:11.650Z,6.23
2019-05-13T07:36:42.149Z,8.60
2019-05-13T07:39:11.940Z,6.90
2019-05-13T07:41:42.942Z,9.37
2019-05-13T07:44:11.877Z,10.17
2019-05-13T07:46:42.464Z,7.97
2019-05-13T07:49:12.009Z,7.37
2019-05-13T07:51:42.010Z,10.32
2019-05-13T07:54:11.376Z,10.73
2019-05-13T07:56:42.402Z,10.80
2019-05-13T07:59:12.051Z,6.17
2019-05-13T08:01:41.686Z,13.10
2019-05-13T08:04:21.864Z,8.50
2019-05-13T08:06:41.661Z,6.40
2019-05-13T08:09:12.540Z,6.63
2019-05-13T08:11:56.475Z,6.20
2019-05-13T08:14:12.218Z,5.80
2019-05-13T08:16:42.553Z,7.93
2019-05-13T08:19:12.338Z,5.90
2019-05-13T08:21:41.836Z,6.50
2019-05-13T08:24:11.954Z,9.77
2019-05-13T08:26:44.959Z,7.83
2019-05-13T08:29:11.408Z,8.90
2019-05-13T08:31:41.274Z,6.30
2019-05-13T08:34:11.778Z,7.30
2019-05-13T08:36:42.786Z,7.13
2019-05-13T08:39:12.774Z,7.67
2019-05-13T08:41:42.374Z,10.50
2019-05-13T08:44:12.381Z,8.30
2019-05-13T08:46:41.372Z,7.73
2019-05-13T08:49:11.910Z,5.03
2019-05-13T08:51:42.236Z,7.00
2019-05-13T08:54:11.455Z,7.13
2019-05-13T08:56:41.634Z,6.83
2019-05-13T08:59:11.529Z,11.65
2019-05-13T09:01:42.444Z,8.83
2019-05-13T09:04:11.965Z,9.30
2019-05-13T09:06:41.863Z,9.30
2019-05-13T09:09:11.476Z,7.00
2019-05-13T09:11:42.179Z,13.97
2019-05-13T09:14:11.297Z,6.03
2019-05-13T09:16:41.932Z,8.93
2019-05-13T09:19:15.718Z,9.47
2019-05-13T09:21:42.334Z,10.57
2019-05-13T09:24:23.879Z,6.73
2019-05-13T09:26:42.132Z,6.57
2019-05-13T09:29:11.910Z,6.67
2019-05-13T09:31:41.547Z,6.50
2019-05-13T09:34:12.138Z,5.70
2019-05-13T09:36:41.723Z,7.90
2019-05-13T09:39:12.407Z,9.20
2019-05-13T09:41:43.693Z,3.83
2019-05-13T09:44:12.143Z,4.50
2019-05-13T09:46:42.384Z,5.27
2019-05-13T09:49:17.424Z,4.60
2019-05-13T09:51:41.635Z,4.90
2019-05-13T09:54:11.656Z,8.63
2019-05-13T09:56:41.302Z,6.37
2019-05-13T09:59:11.715Z,6.87
2019-05-13T10:01:42.282Z,6.30
2019-05-13T10:04:11.890Z,8.33
2019-05-13T10:06:42.064Z,4.97
2019-05-13T10:09:12.196Z,6.93
2019-05-13T10:11:41.631Z,5.57
2019-05-13T10:14:11.665Z,4.37
2019-05-13T10:16:42.359Z,5.70
2019-05-13T10:19:12.385Z,6.20
2019-05-13T10:21:42.062Z,6.33
2019-05-13T10:24:12.350Z,5.97
2019-05-13T10:26:42.595Z,4.93
2019-05-13T10:29:11.847Z,3.67
2019-05-13T10:31:42.066Z,6.30
2019-05-13T10:34:09.848Z,5.70
2019-05-13T10:36:38.209Z,9.33
2019-05-13T10:39:08.182Z,3.17
2019-05-13T10:41:36.477Z,4.53
2019-05-13T10:44:04.740Z,3.03
2019-05-13T10:46:32.987Z,5.80
2019-05-13T10:49:01.897Z,5.60
2019-05-13T10:51:32.672Z,6.40
2019-05-13T10:54:00.483Z,7.27
2019-05-13T10:56:28.764Z,6.63
2019-05-13T10:58:57.340Z,9.13
2019-05-13T11:01:25.700Z,4.20
2019-05-13T11:03:54.045Z,6.80
2019-05-13T11:06:22.304Z,6.30
2019-05-13T11:08:53.137Z,3.27
2019-05-13T11:11:21.905Z,6.70
2019-05-13T11:13:58.335Z,4.10
2019-05-13T11:16:22.543Z,3.23
2019-05-13T11:18:51.956Z,3.40
2019-05-13T11:21:22.155Z,2.10
2019-05-13T11:23:51.772Z,5.53
2019-05-13T11:26:22.117Z,4.60
2019-05-13T11:28:52.110Z,6.80
2019-05-13T11:31:22.364Z,3.20
2019-05-13T11:33:52.028Z,3.80
2019-05-13T11:36:23.451Z,3.13
2019-05-13T11:38:53.149Z,4.57
2019-05-13T11:41:22.941Z,4.27
2019-05-13T11:44:11.540Z,4.03
2019-05-13T11:46:22.590Z,4.40
2019-05-13T11:48:51.914Z,6.20
2019-05-13T11:51:23.814Z,3.80
2019-05-13T11:53:50.535Z,4.17
2019-05-13T11:56:22.745Z,4.60
2019-05-13T11:58:53.441Z,2.53
2019-05-13T12:01:22.858Z,4.63
2019-05-13T12:03:53.198Z,4.23
2019-05-13T12:06:23.333Z,5.13
2019-05-13T12:08:54.114Z,4.17
2019-05-13T12:11:22.384Z,5.47
2019-05-13T12:13:52.776Z,4.90
2019-05-13T12:16:22.727Z,4.57
2019-05-13T12:18:52.564Z,5.47
2019-05-13T12:21:20.683Z,4.10
2019-05-13T12:23:48.957Z,7.07
2019-05-13T12:26:17.224Z,7.40
2019-05-13T12:28:45.562Z,5.60
2019-05-13T12:31:15.414Z,7.00
2019-05-13T12:33:44.124Z,4.77
2019-05-13T12:36:17.888Z,4.37
2019-05-13T12:38:44.346Z,7.07
2019-05-13T12:41:13.198Z,4.03
2019-05-13T12:43:42.637Z,6.03
2019-05-13T12:46:12.583Z,6.37
2019-05-13T12:48:41.271Z,3.93
2019-05-13T12:51:12.713Z,5.30
2019-05-13T12:53:43.253Z,8.57
2019-05-13T12:56:11.953Z,6.23
2019-05-13T12:58:39.601Z,4.77
2019-05-13T13:01:07.899Z,8.27
2019-05-13T13:03:36.190Z,6.70
2019-05-13T13:06:25.200Z,5.40
2019-05-13T13:08:43.442Z,5.57
2019-05-13T13:11:04.527Z,8.53
2019-05-13T13:13:56.196Z,5.70
2019-05-13T13:16:03.717Z,7.83
2019-05-13T13:18:32.151Z,6.30
2019-05-13T13:21:06.250Z,5.57
2019-05-13T13:23:34.127Z,6.53
2019-05-13T13:26:03.049Z,6.10
2019-05-13T13:28:33.799Z,4.13
2019-05-13T13:31:04.218Z,4.53
2019-05-13T13:33:33.936Z,5.00
2019-05-13T13:36:04.954Z,6.13
2019-05-13T13:38:32.624Z,3.83
2019-05-13T13:41:04.019Z,6.40
2019-05-13T13:43:36.433Z,4.93
2019-05-13T13:46:23.192Z,5.10
2019-05-13T13:48:33.197Z,7.33
2019-05-13T13:51:04.054Z,4.87
2019-05-13T13:53:33.326Z,7.50
2019-05-13T13:56:02.316Z,9.70
2019-05-13T13:58:32.639Z,4.43
2019-05-13T14:01:11.509Z,4.33
2019-05-13T14:03:34.015Z,4.47
2019-05-13T14:06:06.175Z,5.90
2019-05-13T14:08:32.067Z,4.23
2019-05-13T14:11:02.077Z,4.60
2019-05-13T14:13:32.410Z,4.70
2019-05-13T14:16:01.862Z,6.90
2019-05-13T14:18:31.682Z,5.37
2019-05-13T14:21:03.121Z,5.53
2019-05-13T14:23:31.791Z,8.57
2019-05-13T14:26:00.534Z,8.23
2019-05-13T14:28:28.788Z,7.40
2019-05-13T14:30:57.115Z,8.17
2019-05-13T14:33:25.405Z,9.80
2019-05-13T14:35:53.647Z,5.07
2019-05-13T14:38:22.383Z,4.10
2019-05-13T14:40:51.922Z,5.17
2019-05-13T14:43:22.935Z,8.00
2019-05-13T14:45:52.123Z,5.30
2019-05-13T14:48:22.321Z,5.47
2019-05-13T14:50:52.263Z,6.73
2019-05-13T14:53:21.451Z,7.33
2019-05-13T14:55:51.783Z,3.37
2019-05-13T14:58:21.931Z,2.87
2019-05-13T15:01:10.444Z,6.50
2019-05-13T15:03:21.688Z,4.07
2019-05-13T15:05:50.168Z,6.43
2019-05-13T15:08:23.023Z,9.60
2019-05-13T15:10:48.910Z,3.43
2019-05-13T15:13:17.240Z,6.50
2019-05-13T15:15:45.516Z,4.13
2019-05-13T15:18:13.899Z,5.50
2019-05-13T15:20:42.159Z,9.07
2019-05-13T15:23:12.015Z,5.07
2019-05-13T15:25:42.037Z,6.10
2019-05-13T15:28:11.981Z,6.37
2019-05-13T15:30:42.111Z,6.63
2019-05-13T15:33:10.467Z,4.93
2019-05-13T15:35:41.681Z,6.27
2019-05-13T15:38:08.771Z,4.17
2019-05-13T15:40:37.048Z,7.93
2019-05-13T15:43:05.329Z,6.40
2019-05-13T15:45:33.651Z,3.73
2019-05-13T15:48:02.313Z,5.53
2019-05-13T15:50:31.891Z,8.07
2019-05-13T15:53:02.809Z,4.37
2019-05-13T15:55:30.574Z,3.97
2019-05-13T15:57:58.963Z,6.87
2019-05-13T16:00:27.220Z,7.17
2019-05-13T16:02:55.494Z,6.60
2019-05-13T16:05:23.743Z,6.33
2019-05-13T16:07:52.402Z,5.80
2019-05-13T16:10:21.031Z,9.27
2019-05-13T16:12:51.330Z,7.93
2019-05-13T16:15:21.589Z,6.30
2019-05-13T16:17:51.901Z,6.03
2019-05-13T16:20:20.939Z,3.93
2019-05-13T16:22:49.219Z,7.40
2019-05-13T16:25:17.495Z,7.70
2019-05-13T16:27:45.831Z,4.10
2019-05-13T16:30:14.094Z,7.53
2019-05-13T16:32:42.652Z,6.60
2019-05-13T16:35:13.423Z,6.23
2019-05-13T16:37:41.886Z,6.13
2019-05-13T16:40:11.879Z,5.20
2019-05-13T16:42:42.215Z,7.67
2019-05-13T16:45:12.521Z,8.27
2019-05-13T16:47:55.784Z,9.20
2019-05-13T16:50:11.495Z,5.97
2019-05-13T16:52:41.813Z,8.00
2019-05-13T16:55:12.589Z,6.97
2019-05-13T16:57:42.171Z,7.10
2019-05-13T17:00:09.998Z,3.97
2019-05-13T17:02:38.386Z,7.50
2019-05-13T17:05:06.637Z,7.90
2019-05-13T17:07:34.923Z,6.20
2019-05-13T17:10:04.289Z,7.13
2019-05-13T17:12:32.597Z,7.80
2019-05-13T17:15:01.378Z,6.60
2019-05-13T17:17:31.807Z,8.07
2019-05-13T17:20:02.216Z,6.73
2019-05-13T17:22:31.588Z,4.83
2019-05-13T17:25:02.321Z,3.87
2019-05-13T17:27:31.801Z,4.27
2019-05-13T17:30:01.932Z,7.23
2019-05-13T17:32:29.803Z,3.17
2019-05-13T17:34:58.089Z,4.33
2019-05-13T17:37:26.340Z,6.60
2019-05-13T17:39:54.643Z,8.67
2019-05-13T17:42:23.060Z,6.10
2019-05-13T17:44:51.702Z,3.03
2019-05-13T17:47:21.850Z,3.70
2019-05-13T17:49:52.142Z,5.93
2019-05-13T17:52:22.125Z,7.43
2019-05-13T17:54:51.792Z,7.07
2019-05-13T17:57:21.541Z,4.63
2019-05-13T17:59:52.087Z,4.47
2019-05-13T18:02:20.350Z,3.83
2019-05-13T18:04:53.051Z,4.73
2019-05-13T18:07:21.548Z,5.63
2019-05-13T18:09:52.000Z,3.80
2019-05-13T18:12:22.274Z,5.37
2019-05-13T18:14:51.674Z,3.00
2019-05-13T18:17:21.557Z,4.40
2019-05-13T18:19:51.540Z,6.27
2019-05-13T18:22:20.139Z,7.17
2019-05-13T18:24:48.425Z,3.57
2019-05-13T18:27:16.884Z,9.07
2019-05-13T18:29:47.907Z,6.17
2019-05-13T18:32:16.187Z,5.97
2019-05-13T18:34:44.537Z,4.73
2019-05-13T18:37:12.792Z,5.10
2019-05-13T18:39:41.660Z,4.93
2019-05-13T18:42:11.482Z,6.63
2019-05-13T18:44:42.130Z,4.93
2019-05-13T18:47:12.068Z,5.70
2019-05-13T18:49:42.120Z,5.30
2019-05-13T18:52:11.685Z,5.20
2019-05-13T18:54:42.106Z,8.07
2019-05-13T18:57:12.184Z,3.73
2019-05-13T18:59:41.562Z,6.77
2019-05-13T19:02:12.297Z,7.70
2019-05-13T19:04:41.784Z,6.67
2019-05-13T19:07:10.331Z,5.77
2019-05-13T19:09:38.738Z,9.63
2019-05-13T19:12:07.135Z,4.20
2019-05-13T19:14:35.528Z,7.73
2019-05-13T19:17:03.939Z,3.37
2019-05-13T19:19:32.244Z,7.00
2019-05-13T19:22:02.159Z,4.40
2019-05-13T19:24:31.221Z,5.03
2019-05-13T19:27:01.759Z,7.50
2019-05-13T19:29:31.773Z,5.00
2019-05-13T19:32:01.764Z,4.57
2019-05-13T19:34:32.102Z,5.13
2019-05-13T19:37:02.162Z,4.00
2019-05-13T19:39:31.245Z,6.23
2019-05-13T19:41:59.905Z,6.20
2019-05-13T19:44:28.167Z,3.13
2019-05-13T19:46:56.444Z,6.70
2019-05-13T19:49:32.181Z,3.23
2019-05-13T19:51:54.676Z,4.87
2019-05-13T19:54:22.959Z,4.80
2019-05-13T19:56:52.042Z,6.23
2019-05-13T19:59:21.632Z,2.67
2019-05-13T20:01:51.924Z,2.87
2019-05-13T20:04:21.815Z,1.50
2019-05-13T20:06:51.898Z,2.37
2019-05-13T20:09:21.628Z,2.57
2019-05-13T20:11:55.077Z,1.73
2019-05-13T20:14:22.224Z,4.23
2019-05-13T20:16:52.313Z,1.87
2019-05-13T20:19:22.173Z,4.60
2019-05-13T20:21:51.727Z,6.20
2019-05-13T20:24:21.988Z,3.63
2019-05-13T20:26:52.099Z,3.02
2019-05-13T20:29:20.248Z,5.30
2019-05-13T20:31:48.601Z,2.83
2019-05-13T20:34:16.872Z,2.13
2019-05-13T20:36:45.186Z,2.50
2019-05-13T20:39:13.461Z,4.03
2019-05-13T20:41:41.721Z,4.23
2019-05-13T20:44:09.979Z,2.07
2019-05-13T20:46:38.256Z,2.97
2019-05-13T20:49:06.527Z,4.13
2019-05-13T20:51:35.611Z,2.40
2019-05-13T20:54:03.886Z,6.17
2019-05-13T20:56:32.143Z,3.03
2019-05-13T20:59:00.528Z,3.50
2019-05-13T21:01:28.811Z,4.57
2019-05-13T21:03:57.073Z,2.37
2019-05-13T21:06:27.892Z,3.20
2019-05-13T21:09:01.475Z,3.20
2019-05-13T21:11:34.207Z,3.23
2019-05-13T21:14:26.168Z,5.10
2019-05-13T21:17:02.621Z,4.87
2019-05-13T21:19:39.640Z,5.60
2019-05-13T21:22:11.989Z,3.03
2019-05-13T21:24:45.608Z,5.97
2019-05-13T21:27:18.925Z,4.87
2019-05-13T21:29:53.708Z,3.97
2019-05-13T21:32:27.330Z,4.77
2019-05-13T21:35:02.413Z,6.20
2019-05-13T21:37:32.184Z,6.83
2019-05-13T21:40:03.879Z,4.90
2019-05-13T21:42:32.203Z,4.60
2019-05-13T21:45:01.730Z,8.00
2019-05-13T21:47:31.197Z,5.73
2019-05-13T21:50:00.743Z,3.33
2019-05-13T21:52:38.294Z,3.77
2019-05-13T21:55:11.282Z,4.70
2019-05-13T21:57:45.524Z,5.03
2019-05-13T22:00:15.488Z,6.63
2019-05-13T22:02:46.815Z,6.27
2019-05-13T22:05:16.706Z,4.50
2019-05-13T22:07:47.052Z,4.67
2019-05-13T22:10:23.376Z,6.60
2019-05-13T22:12:54.723Z,5.93
2019-05-13T22:15:23.419Z,6.57
2019-05-13T22:17:52.559Z,4.47
2019-05-13T22:20:22.198Z,10.17
2019-05-13T22:22:52.186Z,5.33
2019-05-13T22:25:20.539Z,6.70
2019-05-13T22:27:52.007Z,5.27
2019-05-13T22:30:23.756Z,5.33
2019-05-13T22:33:12.140Z,6.00
2019-05-13T22:35:55.660Z,4.80
2019-05-13T22:38:31.997Z,5.50
2019-05-13T22:41:02.655Z,6.70
2019-05-13T22:43:34.869Z,4.47
2019-05-13T22:46:06.076Z,6.23
2019-05-13T22:48:55.961Z,3.57
2019-05-13T22:51:24.214Z,6.90
2019-05-13T22:53:52.467Z,8.40
2019-05-13T22:56:26.600Z,6.40
2019-05-13T22:58:54.663Z,6.50
2019-05-13T23:01:22.917Z,7.50
2019-05-13T23:03:51.538Z,4.50
2019-05-13T23:06:21.645Z,8.23
2019-05-13T23:08:49.955Z,6.93
2019-05-13T23:11:18.232Z,5.20
2019-05-13T23:13:46.518Z,5.23
2019-05-13T23:16:17.836Z,5.40
2019-05-13T23:18:46.463Z,5.27
2019-05-13T23:21:14.812Z,6.90
2019-05-13T23:23:45.535Z,10.57
2019-05-13T23:26:13.872Z,5.10
2019-05-13T23:28:42.127Z,6.57
2019-05-13T23:31:12.286Z,6.63
2019-05-13T23:33:43.780Z,6.80
2019-05-13T23:36:23.191Z,7.40
2019-05-13T23:38:55.156Z,6.50
2019-05-13T23:41:29.350Z,5.67
2019-05-13T23:44:03.042Z,6.50
2019-05-13T23:46:36.170Z,6.60
2019-05-13T23:49:11.860Z,5.90
2019-05-13T23:51:51.838Z,7.03
2019-05-13T23:57:14.281Z,6.43
